Airfield :
LOGIN :

Register | Disclaimer

   EN    FR    IT 

 










Legend :    VFR   Marginal VFR   IFR   Intensive IFR   Very Intensive IFR
Visi :
Ceiling :
>= 8 km
>= 3000ft
5 to 8 km
1000 to 3000 ft
1500m to 5 km
500 to 1000 ft
800 to 1500m
200 to 500 ft
< 800m
< 200 ft
Symbols :   Thunderstorms  Fog  Heavy snow  Heavy precipitations  Wind > 20 kt
SIGMETs :     Misc.  Thunderstorms  Icing  Turbulence  Mountain Waves  Volcanic Ashes







- Airport Elevation : 200 ft


EBBL - Klein Brogel AB

CURRENT METAR :
  • 281225Z 25014KT 9999 SCT040 SCT070 BKN110 21/12 Q1013 BLU BLU TEMPO WHT

EXPIRED METARs :
  • 281155Z 25016KT 9999 SCT038 SCT070 BKN110 21/11 Q1013 BLU BLU TEMPO WHT
  • 281125Z 24015KT 9999 SCT035 SCT070 BKN110 20/12 Q1012 BLU BLU TEMPO WHT
  • 281055Z 25016KT 9999 SCT033 SCT070 BKN110 19/11 Q1012 BLU BLU TEMPO WHT
  • 281025Z 24015KT 9999 SCT032 BKN070 BKN120 20/12 Q1012 BLU BLU TEMPO WHT
  • 280955Z 23014KT 9999 SCT030 BKN070 20/12 Q1012 BLU BLU TEMPO WHT

TAF TAF EBBL
Valid from the 28 at 10:00 until the 28 at 19:00 UTC


280841Z 2810/2819 24012G22KT 9999 SCT025
TEMPO 2810/2815 24018G28KT SCT020
PROB30
TEMPO 2810/2814 5000 -SHRA BKN018
BECMG 2814/2816 NSW FEW040 SCT070
No reported NOTAMs for that airfield.



MET'MAP, your aeronautical weather chart ! - Copyright ORBIFLY December 2007 - Disclaimer

ORBIFLY MET'MAP TEAM :

Programming & Development : Alexandra Zaïnal
Concept & Development : Baudouin d'Aumeries
Co-Development & Prog : Marc-Olivier Méhu
Technical & hardware support : Manuel Goepfert

Contact : metmap@orbifly.com




SOURCES & CREDITS :

   NOAA